Time;durP1;ratioP1;P1;durP2;ratioP2;P2;SDS_P1;SDS_P2;PMS_P1;PMS_P2;Temp;Humidity;BMP_temperature;BMP_pressure;BME280_temperature;BME280_humidity;BME280_pressure;Samples;Min_cycle;Max_cycle;Signal;HPM_P1;HPM_P2
2023/03/27 00:01:29;;;;;;;0.10;0.10;;;;;;;;;;4988374;28;20041;-77
2023/03/27 00:04:15;;;;;;;0.20;0.20;;;;;;;;;;4987808;28;20068;-77
2023/03/27 00:07:00;;;;;;;0.10;0.10;;;;;;;;;;4986460;28;20053;-77
2023/03/27 00:09:46;;;;;;;0.20;0.20;;;;;;;;;;4985523;28;20387;-77
2023/03/27 00:12:32;;;;;;;0.20;0.20;;;;;;;;;;4985780;28;20060;-79
2023/03/27 00:15:18;;;;;;;0.10;0.10;;;;;;;;;;4984872;28;20121;-76
2023/03/27 00:18:03;;;;;;;0.10;0.10;;;;;;;;;;4988289;28;20038;-76
2023/03/27 00:20:50;;;;;;;0.10;0.10;;;;;;;;;;4987247;28;20258;-75
2023/03/27 00:23:36;;;;;;;0.13;0.13;;;;;;;;;;4977194;28;20509;-76
2023/03/27 00:26:22;;;;;;;0.10;0.10;;;;;;;;;;4985658;28;20041;-76
2023/03/27 00:29:07;;;;;;;0.10;0.10;;;;;;;;;;4985437;28;20046;-76
2023/03/27 00:31:53;;;;;;;0.13;0.13;;;;;;;;;;4983273;28;20288;-77
2023/03/27 00:34:39;;;;;;;0.10;0.10;;;;;;;;;;4985310;28;20093;-77
2023/03/27 00:37:25;;;;;;;0.10;0.10;;;;;;;;;;4987384;28;20088;-76
2023/03/27 00:40:16;;;;;;;0.10;0.10;;;;;;;;;;4983932;28;20068;-77
2023/03/27 00:43:17;;;;;;;0.10;0.10;;;;;;;;;;4986737;28;20042;-77
2023/03/27 00:46:16;;;;;;;0.20;0.20;;;;;;;;;;4983372;28;20037;-78
2023/03/27 00:49:03;;;;;;;0.20;0.20;;;;;;;;;;4985634;28;20034;-78
2023/03/27 00:51:51;;;;;;;0.20;0.20;;;;;;;;;;4984865;28;20050;-78
2023/03/27 00:54:37;;;;;;;0.20;0.20;;;;;;;;;;4985517;28;20088;-78
2023/03/27 00:57:24;;;;;;;0.10;0.10;;;;;;;;;;4984244;28;20552;-78
2023/03/27 01:00:12;;;;;;;0.20;0.20;;;;;;;;;;4984195;28;20037;-78
2023/03/27 01:02:59;;;;;;;0.20;0.20;;;;;;;;;;4982862;28;20034;-78
2023/03/27 01:05:46;;;;;;;0.10;0.10;;;;;;;;;;4988411;28;20816;-78
2023/03/27 01:08:32;;;;;;;0.10;0.10;;;;;;;;;;4989373;28;20585;-78
2023/03/27 01:11:30;;;;;;;0.10;0.10;;;;;;;;;;4980361;28;20170;-78
2023/03/27 01:14:36;;;;;;;0.20;0.20;;;;;;;;;;4986170;28;20133;-78
2023/03/27 01:17:32;;;;;;;0.20;0.20;;;;;;;;;;4984757;28;20125;-79
2023/03/27 01:20:24;;;;;;;0.10;0.10;;;;;;;;;;4984261;28;20128;-79
2023/03/27 01:23:29;;;;;;;0.20;0.20;;;;;;;;;;4984319;28;20030;-78
2023/03/27 01:26:30;;;;;;;0.20;0.20;;;;;;;;;;4980821;28;20034;-78
2023/03/27 01:29:16;;;;;;;0.10;0.10;;;;;;;;;;4986828;28;20323;-79
2023/03/27 01:32:21;;;;;;;0.10;0.10;;;;;;;;;;4988659;28;20046;-78
2023/03/27 01:35:26;;;;;;;0.20;0.20;;;;;;;;;;4982006;28;20862;-79
2023/03/27 01:38:12;;;;;;;0.10;0.10;;;;;;;;;;4985262;28;20066;-79
2023/03/27 01:41:10;;;;;;;0.10;0.10;;;;;;;;;;4985007;28;20045;-78
2023/03/27 01:43:59;;;;;;;0.10;0.10;;;;;;;;;;4987080;28;20116;-79
2023/03/27 01:46:45;;;;;;;0.20;0.20;;;;;;;;;;4982189;28;20052;-79
2023/03/27 01:49:38;;;;;;;0.20;0.20;;;;;;;;;;4982823;28;20475;-78
2023/03/27 01:52:27;;;;;;;0.10;0.10;;;;;;;;;;4983758;28;21303;-78
2023/03/27 01:55:17;;;;;;;0.20;0.20;;;;;;;;;;4980171;28;20053;-78
2023/03/27 01:58:06;;;;;;;0.20;0.20;;;;;;;;;;4981680;28;20426;-78
2023/03/27 02:00:54;;;;;;;0.17;0.17;;;;;;;;;;4988691;28;20045;-78
2023/03/27 02:03:42;;;;;;;0.20;0.20;;;;;;;;;;4984211;28;20041;-78
2023/03/27 02:06:32;;;;;;;0.10;0.10;;;;;;;;;;4983555;28;20064;-78
2023/03/27 02:09:25;;;;;;;0.13;0.13;;;;;;;;;;4986316;28;20038;-78
2023/03/27 02:12:18;;;;;;;0.17;0.17;;;;;;;;;;4983250;28;20046;-78
2023/03/27 02:15:10;;;;;;;0.20;0.20;;;;;;;;;;4990929;28;20121;-78
2023/03/27 02:18:08;;;;;;;0.20;0.20;;;;;;;;;;4987327;28;20066;-78
2023/03/27 02:20:54;;;;;;;0.20;0.20;;;;;;;;;;4988708;28;20507;-78
2023/03/27 02:23:41;;;;;;;0.20;0.20;;;;;;;;;;4985670;28;20034;-78
2023/03/27 02:26:31;;;;;;;0.20;0.20;;;;;;;;;;4981395;28;20030;-78
2023/03/27 02:29:37;;;;;;;0.20;0.20;;;;;;;;;;4988004;28;20052;-79
2023/03/27 02:32:41;;;;;;;0.20;0.20;;;;;;;;;;4980188;28;20069;-77
2023/03/27 02:35:32;;;;;;;0.20;0.20;;;;;;;;;;4980513;28;20088;-77
2023/03/27 02:38:22;;;;;;;0.20;0.20;;;;;;;;;;4985465;28;20096;-77
2023/03/27 02:41:17;;;;;;;0.20;0.20;;;;;;;;;;4979701;28;20034;-77
2023/03/27 02:44:11;;;;;;;0.10;0.10;;;;;;;;;;4985505;28;20193;-77
2023/03/27 02:47:21;;;;;;;0.10;0.10;;;;;;;;;;4995006;28;20026;-78
2023/03/27 02:50:10;;;;;;;0.20;0.20;;;;;;;;;;4983637;28;20097;-78
2023/03/27 02:53:00;;;;;;;0.20;0.20;;;;;;;;;;4982024;28;20061;-78
2023/03/27 02:55:52;;;;;;;0.20;0.20;;;;;;;;;;4984867;28;20334;-78
2023/03/27 02:58:48;;;;;;;0.20;0.20;;;;;;;;;;4983156;28;20033;-79
2023/03/27 03:01:51;;;;;;;0.20;0.20;;;;;;;;;;4985731;28;20033;-79
2023/03/27 03:05:00;;;;;;;0.20;0.20;;;;;;;;;;4968812;28;20030;-78
2023/03/27 03:07:56;;;;;;;0.20;0.20;;;;;;;;;;4982105;28;20065;-78
2023/03/27 03:10:44;;;;;;;0.10;0.10;;;;;;;;;;4983709;28;20033;-78
2023/03/27 03:13:31;;;;;;;0.13;0.13;;;;;;;;;;4987201;28;20041;-78
2023/03/27 03:16:17;;;;;;;0.10;0.10;;;;;;;;;;4985510;28;20293;-78
2023/03/27 03:19:03;;;;;;;0.20;0.20;;;;;;;;;;4983884;28;20045;-78
2023/03/27 03:21:49;;;;;;;0.20;0.20;;;;;;;;;;4980541;28;20050;-78
2023/03/27 03:24:36;;;;;;;0.20;0.20;;;;;;;;;;4983422;28;20034;-78
2023/03/27 03:27:22;;;;;;;0.20;0.20;;;;;;;;;;4980723;28;20115;-78
2023/03/27 03:30:19;;;;;;;0.20;0.20;;;;;;;;;;4983843;28;20549;-77
2023/03/27 03:33:15;;;;;;;0.20;0.20;;;;;;;;;;4987753;28;20573;-77
2023/03/27 03:36:00;;;;;;;0.10;0.10;;;;;;;;;;4988998;28;20042;-77
2023/03/27 03:38:51;;;;;;;0.13;0.13;;;;;;;;;;4985815;28;20031;-77
2023/03/27 03:41:37;;;;;;;0.20;0.20;;;;;;;;;;4982628;28;20044;-78
2023/03/27 03:44:23;;;;;;;0.20;0.20;;;;;;;;;;4989476;28;20137;-78
2023/03/27 03:47:09;;;;;;;0.20;0.20;;;;;;;;;;4988748;28;20030;-78
2023/03/27 03:49:55;;;;;;;0.20;0.20;;;;;;;;;;4992881;28;20480;-78
2023/03/27 03:52:41;;;;;;;0.20;0.20;;;;;;;;;;4992789;28;20695;-76
2023/03/27 03:55:27;;;;;;;0.20;0.20;;;;;;;;;;4984064;28;20153;-76
2023/03/27 03:58:12;;;;;;;0.20;0.20;;;;;;;;;;4990013;28;20967;-76
2023/03/27 04:00:59;;;;;;;0.17;0.17;;;;;;;;;;4984647;28;20089;-77
2023/03/27 04:03:55;;;;;;;0.20;0.20;;;;;;;;;;4991652;28;20463;-77
2023/03/27 04:06:42;;;;;;;0.10;0.10;;;;;;;;;;4989639;28;20402;-79
2023/03/27 04:10:03;;;;;;;0.20;0.20;;;;;;;;;;4985850;28;20045;-76
2023/03/27 04:12:52;;;;;;;0.10;0.10;;;;;;;;;;4993353;28;20778;-76
2023/03/27 04:15:46;;;;;;;0.20;0.20;;;;;;;;;;4992894;28;20526;-76
2023/03/27 04:18:54;;;;;;;0.20;0.20;;;;;;;;;;4993772;28;20561;-75
2023/03/27 04:21:41;;;;;;;0.20;0.20;;;;;;;;;;4986471;28;20092;-76
2023/03/27 04:24:31;;;;;;;0.20;0.20;;;;;;;;;;4983887;28;20041;-77
2023/03/27 04:27:16;;;;;;;0.20;0.20;;;;;;;;;;4989932;28;20129;-77
2023/03/27 04:30:22;;;;;;;0.20;0.20;;;;;;;;;;4989057;28;20030;-76
2023/03/27 04:33:27;;;;;;;0.10;0.10;;;;;;;;;;4987063;28;20030;-77
2023/03/27 04:36:41;;;;;;;0.10;0.10;;;;;;;;;;4959761;28;20038;-77
2023/03/27 04:39:34;;;;;;;0.10;0.10;;;;;;;;;;4988351;28;20049;-77
2023/03/27 04:42:23;;;;;;;0.13;0.13;;;;;;;;;;4987314;28;20052;-78
2023/03/27 04:45:13;;;;;;;0.10;0.10;;;;;;;;;;4985968;28;20038;-78
2023/03/27 04:48:00;;;;;;;0.20;0.20;;;;;;;;;;4992515;28;20363;-77
2023/03/27 04:50:50;;;;;;;0.20;0.20;;;;;;;;;;4983692;28;20046;-77
2023/03/27 04:53:48;;;;;;;0.20;0.20;;;;;;;;;;4982738;28;20553;-77
2023/03/27 04:56:34;;;;;;;0.20;0.20;;;;;;;;;;4985332;28;20121;-78
2023/03/27 04:59:21;;;;;;;0.20;0.20;;;;;;;;;;4985373;28;20029;-78
2023/03/27 05:02:22;;;;;;;0.20;0.20;;;;;;;;;;4984913;28;20361;-78
2023/03/27 05:05:15;;;;;;;0.20;0.20;;;;;;;;;;4971726;28;20034;-78
2023/03/27 05:08:04;;;;;;;0.20;0.20;;;;;;;;;;4988179;28;20565;-78
2023/03/27 05:10:50;;;;;;;0.20;0.20;;;;;;;;;;4986189;28;20056;-78
2023/03/27 05:13:37;;;;;;;0.20;0.20;;;;;;;;;;4991158;28;20026;-77
2023/03/27 05:16:25;;;;;;;0.20;0.20;;;;;;;;;;4984146;28;20107;-76
2023/03/27 05:19:14;;;;;;;;;;;;;;;;;;4989440;28;20041;-77
2023/03/27 05:22:06;;;;;;;0.15;0.15;;;;;;;;;;4986061;28;19910;-77
2023/03/27 05:24:55;;;;;;;0.20;0.20;;;;;;;;;;4992635;28;20462;-77
2023/03/27 05:27:44;;;;;;;0.20;0.20;;;;;;;;;;4987432;28;20505;-78
2023/03/27 05:30:30;;;;;;;0.15;0.15;;;;;;;;;;4990598;28;20050;-78
2023/03/27 05:33:38;;;;;;;0.20;0.20;;;;;;;;;;4989479;28;20246;-77
2023/03/27 05:36:28;;;;;;;0.10;0.10;;;;;;;;;;4986935;28;20040;-78
2023/03/27 05:39:17;;;;;;;0.20;0.20;;;;;;;;;;4988348;28;20026;-78
2023/03/27 05:42:07;;;;;;;0.20;0.20;;;;;;;;;;4984403;28;20589;-78
2023/03/27 05:44:54;;;;;;;0.20;0.20;;;;;;;;;;4986043;28;20057;-77
2023/03/27 05:47:46;;;;;;;0.20;0.20;;;;;;;;;;4983332;28;20034;-78
2023/03/27 05:50:33;;;;;;;0.20;0.20;;;;;;;;;;4981838;28;20379;-78
2023/03/27 05:53:19;;;;;;;0.20;0.20;;;;;;;;;;4996175;28;20048;-78
2023/03/27 05:56:15;;;;;;;0.20;0.20;;;;;;;;;;4983339;28;20030;-77
2023/03/27 05:59:12;;;;;;;0.20;0.20;;;;;;;;;;4991791;28;20087;-77
2023/03/27 06:02:04;;;;;;;0.20;0.20;;;;;;;;;;4984727;28;20056;-78
2023/03/27 06:05:03;;;;;;;0.20;0.20;;;;;;;;;;4991375;28;20517;-77
2023/03/27 06:07:52;;;;;;;0.20;0.20;;;;;;;;;;4991505;28;20038;-77
2023/03/27 06:10:39;;;;;;;0.20;0.20;;;;;;;;;;4984516;28;20046;-77
2023/03/27 06:13:51;;;;;;;0.20;0.20;;;;;;;;;;4989924;28;20485;-77
2023/03/27 06:16:42;;;;;;;0.20;0.20;;;;;;;;;;4983474;28;20059;-76
2023/03/27 06:19:57;;;;;;;0.20;0.20;;;;;;;;;;4981869;28;20856;-77
2023/03/27 06:22:44;;;;;;;0.20;0.20;;;;;;;;;;4974098;28;20117;-77
2023/03/27 06:25:33;;;;;;;0.20;0.20;;;;;;;;;;4989545;28;20089;-77
2023/03/27 06:28:19;;;;;;;0.20;0.20;;;;;;;;;;4989905;28;20038;-77
2023/03/27 06:31:07;;;;;;;0.20;0.20;;;;;;;;;;4983221;28;20077;-77
2023/03/27 06:34:13;;;;;;;0.20;0.20;;;;;;;;;;4977742;28;20111;-77
2023/03/27 06:37:10;;;;;;;0.20;0.20;;;;;;;;;;4990606;28;20505;-77
2023/03/27 06:40:00;;;;;;;0.20;0.20;;;;;;;;;;4990588;28;20092;-77
2023/03/27 06:42:50;;;;;;;0.20;0.20;;;;;;;;;;4985029;28;20034;-78
2023/03/27 06:45:44;;;;;;;0.20;0.20;;;;;;;;;;4981184;28;20705;-77
2023/03/27 06:48:49;;;;;;;0.20;0.20;;;;;;;;;;4986497;28;20030;-77
2023/03/27 06:51:37;;;;;;;0.20;0.20;;;;;;;;;;4981188;28;20037;-77
2023/03/27 06:54:23;;;;;;;0.13;0.13;;;;;;;;;;4982951;28;20584;-77
2023/03/27 06:57:14;;;;;;;0.20;0.20;;;;;;;;;;4983747;28;20042;-77
2023/03/27 07:00:21;;;;;;;0.20;0.20;;;;;;;;;;4987263;28;20470;-78
2023/03/27 07:03:26;;;;;;;0.20;0.20;;;;;;;;;;4987733;28;20037;-78
2023/03/27 07:06:30;;;;;;;0.20;0.20;;;;;;;;;;4983583;28;20061;-78
2023/03/27 07:09:24;;;;;;;0.20;0.20;;;;;;;;;;4986461;28;20076;-78
2023/03/27 07:12:19;;;;;;;0.20;0.20;;;;;;;;;;4984728;28;20141;-78
2023/03/27 07:15:07;;;;;;;0.10;0.10;;;;;;;;;;4987356;28;20932;-78
2023/03/27 07:17:56;;;;;;;0.20;0.20;;;;;;;;;;4987816;28;20030;-78
2023/03/27 07:20:43;;;;;;;0.10;0.10;;;;;;;;;;4984419;28;20835;-78
2023/03/27 07:23:33;;;;;;;0.20;0.20;;;;;;;;;;4994377;28;20697;-78
2023/03/27 07:26:28;;;;;;;0.20;0.20;;;;;;;;;;4985963;28;20286;-77
2023/03/27 07:29:18;;;;;;;0.10;0.10;;;;;;;;;;4987137;28;20037;-77
2023/03/27 07:32:09;;;;;;;0.20;0.20;;;;;;;;;;4988692;28;20042;-77
2023/03/27 07:35:04;;;;;;;0.20;0.20;;;;;;;;;;4992451;28;20060;-76
2023/03/27 07:38:09;;;;;;;0.20;0.20;;;;;;;;;;4991207;28;20561;-77
2023/03/27 07:40:56;;;;;;;0.20;0.20;;;;;;;;;;4984807;28;20538;-77
2023/03/27 07:43:47;;;;;;;0.20;0.20;;;;;;;;;;4999274;28;20034;-77
2023/03/27 07:46:33;;;;;;;0.20;0.20;;;;;;;;;;4993662;28;20106;-77
2023/03/27 07:49:22;;;;;;;0.20;0.20;;;;;;;;;;4994004;28;20058;-77
2023/03/27 07:52:08;;;;;;;0.20;0.20;;;;;;;;;;4980673;28;20099;-77
2023/03/27 07:55:00;;;;;;;0.20;0.20;;;;;;;;;;4986019;28;20026;-77
2023/03/27 07:57:54;;;;;;;0.20;0.20;;;;;;;;;;4991546;28;20514;-77
2023/03/27 08:00:42;;;;;;;0.20;0.20;;;;;;;;;;4992587;28;20117;-77
2023/03/27 08:03:32;;;;;;;0.20;0.20;;;;;;;;;;4986700;28;20235;-77
2023/03/27 08:06:18;;;;;;;0.20;0.20;;;;;;;;;;4994510;28;20244;-78
2023/03/27 08:09:04;;;;;;;0.20;0.20;;;;;;;;;;4988735;28;20041;-78
2023/03/27 08:11:52;;;;;;;0.20;0.20;;;;;;;;;;4991169;28;20477;-78
2023/03/27 08:14:39;;;;;;;0.20;0.20;;;;;;;;;;4985989;28;20045;-78
2023/03/27 08:17:35;;;;;;;0.20;0.20;;;;;;;;;;4990139;28;20096;-78
2023/03/27 08:20:22;;;;;;;0.20;0.20;;;;;;;;;;4984807;28;20125;-78
2023/03/27 08:23:08;;;;;;;0.20;0.20;;;;;;;;;;4985116;28;20041;-78
2023/03/27 08:26:20;;;;;;;0.20;0.20;;;;;;;;;;4970341;28;20057;-76
2023/03/27 08:29:11;;;;;;;0.20;0.20;;;;;;;;;;4988207;28;20034;-76
2023/03/27 08:31:57;;;;;;;0.20;0.20;;;;;;;;;;4984038;28;20057;-76
2023/03/27 08:34:43;;;;;;;0.20;0.20;;;;;;;;;;4982461;28;20034;-76
2023/03/27 08:37:28;;;;;;;0.20;0.20;;;;;;;;;;4989327;28;20037;-76
2023/03/27 08:40:48;;;;;;;0.20;0.20;;;;;;;;;;4892778;28;20062;-76
2023/03/27 08:43:44;;;;;;;0.20;0.20;;;;;;;;;;4985763;28;20316;-76
2023/03/27 08:46:33;;;;;;;0.20;0.20;;;;;;;;;;4989100;28;20065;-77
2023/03/27 08:49:25;;;;;;;0.20;0.20;;;;;;;;;;4986119;28;20225;-78
2023/03/27 08:52:42;;;;;;;0.20;0.20;;;;;;;;;;4983454;28;20061;-78
2023/03/27 08:55:39;;;;;;;0.20;0.20;;;;;;;;;;4988034;28;20057;-78
2023/03/27 08:58:38;;;;;;;0.20;0.20;;;;;;;;;;4983528;28;20042;-77
2023/03/27 09:01:39;;;;;;;0.20;0.20;;;;;;;;;;4979805;28;20359;-78
2023/03/27 09:04:58;;;;;;;0.20;0.20;;;;;;;;;;4988898;28;20076;-78
2023/03/27 09:07:44;;;;;;;0.10;0.10;;;;;;;;;;4965533;28;20037;-77
2023/03/27 09:10:44;;;;;;;0.20;0.20;;;;;;;;;;4985845;28;20100;-77
2023/03/27 09:13:48;;;;;;;0.20;0.20;;;;;;;;;;4988273;28;20379;-77
2023/03/27 09:16:40;;;;;;;0.20;0.20;;;;;;;;;;4976593;28;20034;-78
2023/03/27 09:19:29;;;;;;;0.20;0.20;;;;;;;;;;4981864;28;20457;-77
2023/03/27 09:22:22;;;;;;;0.20;0.20;;;;;;;;;;4981866;28;20114;-78
2023/03/27 09:25:33;;;;;;;0.20;0.20;;;;;;;;;;4967656;28;20045;-78
2023/03/27 09:28:35;;;;;;;0.20;0.20;;;;;;;;;;4984349;28;20402;-78
2023/03/27 09:31:57;;;;;;;0.20;0.20;;;;;;;;;;4985268;28;20542;-78
2023/03/27 09:34:44;;;;;;;0.20;0.20;;;;;;;;;;4955469;28;20121;-78
2023/03/27 09:37:30;;;;;;;0.20;0.20;;;;;;;;;;4982220;28;20030;-78
2023/03/27 09:40:30;;;;;;;0.20;0.20;;;;;;;;;;4958931;28;20064;-79
2023/03/27 09:43:20;;;;;;;0.20;0.20;;;;;;;;;;4979637;28;20044;-78
2023/03/27 09:46:07;;;;;;;0.13;0.13;;;;;;;;;;4983470;28;20026;-79
2023/03/27 09:48:54;;;;;;;0.25;0.25;;;;;;;;;;4989197;28;20365;-79
2023/03/27 09:51:45;;;;;;;0.20;0.20;;;;;;;;;;4988560;28;20856;-78
2023/03/27 09:54:52;;;;;;;0.20;0.20;;;;;;;;;;4995513;28;20864;-79
2023/03/27 09:57:42;;;;;;;0.20;0.20;;;;;;;;;;4980892;28;20523;-79
2023/03/27 10:00:30;;;;;;;0.20;0.20;;;;;;;;;;4983922;28;20069;-79
2023/03/27 10:03:19;;;;;;;0.13;0.13;;;;;;;;;;4985580;28;20261;-78
2023/03/27 10:06:12;;;;;;;0.20;0.20;;;;;;;;;;4980272;28;20031;-79
2023/03/27 10:09:26;;;;;;;0.20;0.20;;;;;;;;;;4984077;28;20041;-79
2023/03/27 10:12:19;;;;;;;0.20;0.20;;;;;;;;;;4981932;28;20073;-79
2023/03/27 10:15:37;;;;;;;0.20;0.20;;;;;;;;;;4982444;28;20127;-78
2023/03/27 10:18:28;;;;;;;0.20;0.20;;;;;;;;;;4978004;28;20133;-78
2023/03/27 10:21:46;;;;;;;0.20;0.20;;;;;;;;;;4982799;28;20042;-78
2023/03/27 10:24:44;;;;;;;0.20;0.20;;;;;;;;;;4988770;28;20442;-79
2023/03/27 10:27:51;;;;;;;0.13;0.13;;;;;;;;;;4987926;28;20541;-79
2023/03/27 10:31:00;;;;;;;0.20;0.20;;;;;;;;;;4986632;28;20054;-78
2023/03/27 10:33:53;;;;;;;0.20;0.20;;;;;;;;;;4982655;28;20113;-78
2023/03/27 10:37:00;;;;;;;0.20;0.20;;;;;;;;;;4978070;28;20486;-77
2023/03/27 10:39:46;;;;;;;0.20;0.20;;;;;;;;;;4952974;28;20117;-77
2023/03/27 10:42:40;;;;;;;0.20;0.20;;;;;;;;;;4983992;28;20368;-77
2023/03/27 10:45:27;;;;;;;0.10;0.10;;;;;;;;;;4984277;28;20038;-78
2023/03/27 10:48:36;;;;;;;0.20;0.20;;;;;;;;;;4977572;28;20042;-79
2023/03/27 10:51:22;;;;;;;0.20;0.20;;;;;;;;;;4983291;28;20313;-79
2023/03/27 10:54:16;;;;;;;0.20;0.20;;;;;;;;;;4984901;28;20486;-79
2023/03/27 10:57:31;;;;;;;0.20;0.20;;;;;;;;;;4987006;28;20459;-79
2023/03/27 11:00:37;;;;;;;0.30;0.30;;;;;;;;;;4991023;28;20041;-79
2023/03/27 11:09:58;;;;;;;0.30;0.30;;;;;;;;;;5015553;28;20049;-80
2023/03/27 11:15:35;;;;;;;0.30;0.30;;;;;;;;;;4964615;23;20046;-77
2023/03/27 11:18:54;;;;;;;0.38;0.38;;;;;;;;;;4957496;28;20099;-77
2023/03/27 11:21:47;;;;;;;0.30;0.30;;;;;;;;;;4959559;28;20038;-77
2023/03/27 11:24:57;;;;;;;0.30;0.30;;;;;;;;;;4973847;28;20069;-77
2023/03/27 11:28:01;;;;;;;0.35;0.30;;;;;;;;;;4964880;28;20030;-77
2023/03/27 11:31:15;;;;;;;0.20;0.20;;;;;;;;;;4965606;28;20113;-78
2023/03/27 11:34:11;;;;;;;0.20;0.20;;;;;;;;;;4973411;28;20113;-77
2023/03/27 11:37:10;;;;;;;0.20;0.20;;;;;;;;;;4975895;28;20034;-77
2023/03/27 11:40:08;;;;;;;0.20;0.20;;;;;;;;;;4925909;28;20093;-77
2023/03/27 11:42:54;;;;;;;0.20;0.20;;;;;;;;;;4952258;28;20034;-77
2023/03/27 11:45:53;;;;;;;0.30;0.30;;;;;;;;;;4951791;28;20030;-76
2023/03/27 11:48:49;;;;;;;0.17;0.17;;;;;;;;;;4968771;28;20088;-77
2023/03/27 11:51:35;;;;;;;0.32;0.30;;;;;;;;;;4952106;28;20507;-76
2023/03/27 11:54:36;;;;;;;0.20;0.20;;;;;;;;;;4951744;28;20362;-77
2023/03/27 11:57:25;;;;;;;0.30;0.30;;;;;;;;;;4952740;28;20031;-77
2023/03/27 12:00:24;;;;;;;0.20;0.20;;;;;;;;;;4954065;28;20449;-78
2023/03/27 12:03:12;;;;;;;0.10;0.10;;;;;;;;;;4964872;28;20394;-78
2023/03/27 12:06:06;;;;;;;0.10;0.10;;;;;;;;;;4953115;28;20426;-79
2023/03/27 12:08:55;;;;;;;0.10;0.10;;;;;;;;;;4954235;28;20424;-79
2023/03/27 12:11:48;;;;;;;0.10;0.10;;;;;;;;;;4950787;28;20193;-79
2023/03/27 12:14:54;;;;;;;0.13;0.13;;;;;;;;;;4953098;28;20330;-79
2023/03/27 12:17:49;;;;;;;0.43;0.40;;;;;;;;;;4934387;28;20037;-76
2023/03/27 12:20:40;;;;;;;0.20;0.20;;;;;;;;;;4958687;28;20030;-76
2023/03/27 12:23:36;;;;;;;0.20;0.20;;;;;;;;;;4953567;28;20056;-76
2023/03/27 12:27:05;;;;;;;0.10;0.10;;;;;;;;;;4965192;28;20113;-76
2023/03/27 12:30:19;;;;;;;0.10;0.10;;;;;;;;;;4953071;28;20113;-78
2023/03/27 12:33:26;;;;;;;0.35;0.35;;;;;;;;;;4952443;28;20042;-77
2023/03/27 12:36:15;;;;;;;0.30;0.30;;;;;;;;;;4953219;28;20334;-78
2023/03/27 12:39:23;;;;;;;0.30;0.30;;;;;;;;;;4924816;28;20255;-79
2023/03/27 12:42:13;;;;;;;0.30;0.30;;;;;;;;;;4949371;28;20464;-79
2023/03/27 12:45:15;;;;;;;0.20;0.20;;;;;;;;;;4952975;28;20038;-79
2023/03/27 12:48:10;;;;;;;0.30;0.30;;;;;;;;;;4966330;28;20042;-78
2023/03/27 12:50:59;;;;;;;0.25;0.25;;;;;;;;;;4952867;28;20120;-79
2023/03/27 12:53:49;;;;;;;0.15;0.15;;;;;;;;;;4956056;28;20039;-79
2023/03/27 12:56:35;;;;;;;0.10;0.10;;;;;;;;;;4963746;28;20180;-79
2023/03/27 12:59:23;;;;;;;0.30;0.30;;;;;;;;;;4952326;28;20117;-79
2023/03/27 13:02:25;;;;;;;0.10;0.10;;;;;;;;;;4962588;28;20476;-79
2023/03/27 13:05:17;;;;;;;0.13;0.13;;;;;;;;;;4950526;28;20110;-80
2023/03/27 13:08:09;;;;;;;0.20;0.20;;;;;;;;;;4964050;28;20490;-79
2023/03/27 13:11:36;;;;;;;0.10;0.10;;;;;;;;;;4964428;28;20113;-79
2023/03/27 13:14:41;;;;;;;0.10;0.10;;;;;;;;;;4964787;28;20154;-78
2023/03/27 13:17:36;;;;;;;0.10;0.10;;;;;;;;;;4955601;28;20130;-79
2023/03/27 13:20:29;;;;;;;0.20;0.20;;;;;;;;;;4951269;28;20225;-79
2023/03/27 13:23:35;;;;;;;0.20;0.20;;;;;;;;;;4942879;28;20475;-80
2023/03/27 13:26:26;;;;;;;0.30;0.30;;;;;;;;;;4935257;28;20086;-79
2023/03/27 13:29:33;;;;;;;0.27;0.27;;;;;;;;;;4948969;28;20070;-79
2023/03/27 13:32:32;;;;;;;0.20;0.20;;;;;;;;;;4948156;28;20078;-79
2023/03/27 13:35:31;;;;;;;0.13;0.13;;;;;;;;;;4950818;28;20026;-79
2023/03/27 13:38:38;;;;;;;0.10;0.10;;;;;;;;;;4952853;28;20317;-80
2023/03/27 13:41:39;;;;;;;0.17;0.17;;;;;;;;;;4941942;28;20058;-79
2023/03/27 13:44:34;;;;;;;0.10;0.10;;;;;;;;;;4964221;28;20073;-79
2023/03/27 13:47:33;;;;;;;0.20;0.20;;;;;;;;;;4948996;28;20030;-79
2023/03/27 13:50:25;;;;;;;0.30;0.30;;;;;;;;;;4945876;28;20041;-79
2023/03/27 13:53:24;;;;;;;0.30;0.30;;;;;;;;;;4963265;28;20039;-78
2023/03/27 13:56:39;;;;;;;0.30;0.30;;;;;;;;;;4958450;28;20042;-79
2023/03/27 13:59:54;;;;;;;0.20;0.20;;;;;;;;;;4963865;28;20053;-79
2023/03/27 14:02:55;;;;;;;0.30;0.30;;;;;;;;;;4965297;28;20109;-79
2023/03/27 14:05:52;;;;;;;0.30;0.30;;;;;;;;;;4950983;28;20034;-79
2023/03/27 14:08:43;;;;;;;0.20;0.20;;;;;;;;;;4954377;28;21432;-79
2023/03/27 14:11:53;;;;;;;0.20;0.20;;;;;;;;;;4967070;28;20122;-78
2023/03/27 14:14:58;;;;;;;0.22;0.22;;;;;;;;;;4967980;28;20137;-78
2023/03/27 14:17:50;;;;;;;0.20;0.20;;;;;;;;;;4969865;28;20041;-78
2023/03/27 14:20:44;;;;;;;0.30;0.30;;;;;;;;;;4966005;28;20027;-78
2023/03/27 14:23:34;;;;;;;0.20;0.20;;;;;;;;;;4964402;28;20031;-78
2023/03/27 14:26:39;;;;;;;0.20;0.20;;;;;;;;;;4961674;28;20149;-79
2023/03/27 14:29:25;;;;;;;0.22;0.22;;;;;;;;;;4971028;28;20053;-78
2023/03/27 14:32:13;;;;;;;1.20;1.10;;;;;;;;;;4953488;28;20591;-79
2023/03/27 14:35:04;;;;;;;0.40;0.40;;;;;;;;;;4967171;28;20045;-79
2023/03/27 14:38:06;;;;;;;0.22;0.22;;;;;;;;;;4950755;28;20043;-79
2023/03/27 14:41:19;;;;;;;0.20;0.20;;;;;;;;;;4924085;28;20061;-79
2023/03/27 14:44:12;;;;;;;0.10;0.10;;;;;;;;;;4949619;28;20250;-79
2023/03/27 14:47:02;;;;;;;0.10;0.10;;;;;;;;;;4958230;28;20038;-79
2023/03/27 14:49:49;;;;;;;0.10;0.10;;;;;;;;;;4950371;28;20067;-78
2023/03/27 14:52:52;;;;;;;0.10;0.10;;;;;;;;;;4967197;28;20392;-79
2023/03/27 14:55:51;;;;;;;0.10;0.10;;;;;;;;;;4963239;28;20023;-78
2023/03/27 14:58:57;;;;;;;0.10;0.10;;;;;;;;;;4963311;28;20478;-78
2023/03/27 15:01:46;;;;;;;0.17;0.17;;;;;;;;;;4961892;28;20041;-78
2023/03/27 15:04:33;;;;;;;0.10;0.10;;;;;;;;;;4949582;28;20061;-78
2023/03/27 15:07:27;;;;;;;0.30;0.30;;;;;;;;;;4953297;28;20045;-78
2023/03/27 15:10:26;;;;;;;0.30;0.30;;;;;;;;;;4963509;28;20070;-79
2023/03/27 15:13:32;;;;;;;0.30;0.30;;;;;;;;;;4968731;28;20508;-79
2023/03/27 15:16:20;;;;;;;0.20;0.20;;;;;;;;;;4932299;28;20039;-79
2023/03/27 15:19:17;;;;;;;0.20;0.20;;;;;;;;;;4932354;28;20348;-79
2023/03/27 15:22:06;;;;;;;0.30;0.30;;;;;;;;;;4931207;28;20031;-79
2023/03/27 15:24:55;;;;;;;0.20;0.20;;;;;;;;;;4932101;28;20031;-79
2023/03/27 15:27:45;;;;;;;0.50;0.40;;;;;;;;;;4934143;28;20375;-79
2023/03/27 15:30:36;;;;;;;0.30;0.30;;;;;;;;;;4946148;28;20463;-79
2023/03/27 15:33:41;;;;;;;0.35;0.35;;;;;;;;;;4946906;28;20035;-80
2023/03/27 15:36:29;;;;;;;0.22;0.22;;;;;;;;;;4943902;28;20034;-80
2023/03/27 15:39:21;;;;;;;0.20;0.20;;;;;;;;;;4922200;28;20089;-80
2023/03/27 15:42:12;;;;;;;0.15;0.15;;;;;;;;;;4945473;28;20467;-80
2023/03/27 15:45:01;;;;;;;0.10;0.10;;;;;;;;;;4935164;28;20353;-80
2023/03/27 15:48:06;;;;;;;0.10;0.10;;;;;;;;;;4945330;28;20039;-81
2023/03/27 15:50:55;;;;;;;0.10;0.10;;;;;;;;;;4933201;28;20065;-81
2023/03/27 15:53:43;;;;;;;0.10;0.10;;;;;;;;;;4945955;28;20027;-79
2023/03/27 15:56:42;;;;;;;0.10;0.10;;;;;;;;;;4947504;28;20034;-80
2023/03/27 15:59:29;;;;;;;0.20;0.20;;;;;;;;;;4946504;28;20050;-81
2023/03/27 16:02:16;;;;;;;0.17;0.17;;;;;;;;;;4944855;28;20506;-79
2023/03/27 16:05:02;;;;;;;0.10;0.10;;;;;;;;;;4937912;28;20045;-80
2023/03/27 16:07:47;;;;;;;0.30;0.30;;;;;;;;;;4947587;28;20043;-80
2023/03/27 16:10:34;;;;;;;0.20;0.20;;;;;;;;;;4947573;28;20133;-80
2023/03/27 16:13:31;;;;;;;0.10;0.10;;;;;;;;;;4947400;28;20055;-81
2023/03/27 16:16:16;;;;;;;0.10;0.10;;;;;;;;;;4965851;28;20049;-81
2023/03/27 16:19:09;;;;;;;0.10;0.10;;;;;;;;;;4969603;28;20038;-79
2023/03/27 16:21:55;;;;;;;0.10;0.10;;;;;;;;;;4970050;28;20035;-79
2023/03/27 16:24:41;;;;;;;0.17;0.17;;;;;;;;;;4968545;28;20034;-78
2023/03/27 16:27:30;;;;;;;0.10;0.10;;;;;;;;;;4967304;28;20030;-79
2023/03/27 16:30:34;;;;;;;0.20;0.20;;;;;;;;;;4964821;28;20035;-79
2023/03/27 16:33:21;;;;;;;0.10;0.10;;;;;;;;;;4965475;28;20047;-80
2023/03/27 16:36:11;;;;;;;0.10;0.10;;;;;;;;;;4965452;28;20432;-80
2023/03/27 16:38:57;;;;;;;0.10;0.10;;;;;;;;;;4942294;28;20042;-80
2023/03/27 16:41:45;;;;;;;0.20;0.20;;;;;;;;;;4961940;28;20030;-79
2023/03/27 16:44:30;;;;;;;0.28;0.28;;;;;;;;;;4966063;28;20237;-80
2023/03/27 16:47:16;;;;;;;0.20;0.20;;;;;;;;;;4967616;28;20037;-80
2023/03/27 16:50:03;;;;;;;0.20;0.20;;;;;;;;;;4967485;28;20042;-80
2023/03/27 16:52:49;;;;;;;0.20;0.20;;;;;;;;;;4969786;28;20052;-80
2023/03/27 16:55:35;;;;;;;0.20;0.20;;;;;;;;;;4968191;28;20057;-80
2023/03/27 16:58:21;;;;;;;0.20;0.20;;;;;;;;;;4967226;28;20031;-81
2023/03/27 17:01:07;;;;;;;0.20;0.20;;;;;;;;;;4966321;28;20033;-80
2023/03/27 17:03:53;;;;;;;0.17;0.17;;;;;;;;;;4964207;28;20183;-81
2023/03/27 17:06:39;;;;;;;0.20;0.20;;;;;;;;;;4966448;28;20053;-79
2023/03/27 17:09:25;;;;;;;0.10;0.10;;;;;;;;;;4966350;28;20066;-79
2023/03/27 17:12:12;;;;;;;0.10;0.10;;;;;;;;;;4965474;28;20677;-79
2023/03/27 17:14:57;;;;;;;0.10;0.10;;;;;;;;;;4979012;28;20046;-81
2023/03/27 17:17:44;;;;;;;0.20;0.20;;;;;;;;;;4968139;28;20026;-81
2023/03/27 17:20:30;;;;;;;0.10;0.10;;;;;;;;;;4966232;28;20108;-81
2023/03/27 17:23:16;;;;;;;0.20;0.20;;;;;;;;;;4967863;28;20129;-81
2023/03/27 17:26:02;;;;;;;0.10;0.10;;;;;;;;;;4969456;28;20048;-81
2023/03/27 17:28:48;;;;;;;0.10;0.10;;;;;;;;;;4968772;28;20031;-80
2023/03/27 17:31:34;;;;;;;0.20;0.20;;;;;;;;;;4965067;28;20058;-80